الصفحة الرئيسية
METAR-TAF:

METAR-TAF

مطار :

مطار سونان الدولي

بيونغيانغ, كوريا الشمالية

دائرة عرض: 39-02N, خط طول: 125-47E, ارتفاع: 36 متر

METAR: مفقودة

زمن: 21:42 (12:42 UTC)

توقعات

تاريخ ووقت الإصدار 8ساعات و 42 دقيقة قبل الساعة 04:00UTC
التوقعات صالحة من24 الساعة 06 UTC إلى 25 الساعة 06 UTC
ريح 8 عقدة من الشمال/الشمال الغربي
الرؤية 10 كم أو أكثر
غيوم مفككة على ارتفاع 2000 قدم
أصبح
من 24 الساعة 10 UTC إلى 24 الساعة 12 UTC
الرؤية 10 كم أو أكثر
الغيوم لا تقل 1500 م ولا وجود لمزنة ركامية السحاب الأسود
أصبح
من 24 الساعة 21 UTC إلى 24 الساعة 23 UTC
غيوم مفككة على ارتفاع 3000 قدم

TAF: ZKPY 240400Z 2406/2506 33004MPS 9999 BKN020 TX28/2406Z TN17/2421Z BECMG 2410/2412 CAVOK BECMG 2421/2423 BKN030

أرصاد الطقس والتوقعات من أكثر من 4000 مطار (تقارير الطقس للمطار METAR والتنبؤ بالطقس بالمطارTAF).

المحطات المتاحة هي النقط الصفراء والحمراء على الخريطة.

حرك المؤشر فوق النقطة لمعرفة اسم المحطة.

ثم انقر لمعرفة أرصاد وتوقعات الطقس.

لتغيير الخارطة: اضغط على الأزرار الخضراء مع رمز الصليب الأسود للتكبير. على الزر الأخضر مع شرطة للتصغير، أو على الأسهم الخضراء للخرائط المجاورة.


METAR-TAF: